Prices Branch, Missouri
Current Conditions -  °F | °C
As of 3:35 AM on Friday 31 Oct 2014 (Local Time) from KFYG Reporting Station
Overcast Overcast  
Wind Chill:   Ceiling: 9000
Heat Index:   Visibility: 8mi
Dew Point:   Wind: 3mph
Humidity: 93%   Direction: 340°NNW
Pressure: 30.11"   Gusts: NA
Location:  38.8882°N, 91.5312°W
Report Text: KFYG 310835Z AUTO 34003KT 8SM FEW060 FEW080 OVC090 06/05 A3011 RMK AO2
Loading
Personal Weather Stations






























Interactive Weather Map
Tropical Storm Tracking
New forecast layout! Learn more

10-Day Weather Forecast

Advertisements
Track Severe Weather on mobile